Time;durP1;ratioP1;P1;durP2;ratioP2;P2;SDS_P1;SDS_P2;PMS_P1;PMS_P2;Temp;Humidity;BMP_temperature;BMP_pressure;BME280_temperature;BME280_humidity;BME280_pressure;Samples;Min_cycle;Max_cycle;Signal;HPM_P1;HPM_P2
2021/11/14 00:01:44;;;;;;;90.45;34.47;;;8.30;81.00;;;;;;4404431;29;20869;-68
2021/11/14 00:04:01;;;;;;;92.32;33.20;;;8.30;81.00;;;;;;4404506;29;20059;-68
2021/11/14 00:06:20;;;;;;;99.18;36.20;;;8.30;81.00;;;;;;4404327;29;20435;-69
2021/11/14 00:08:39;;;;;;;93.50;34.28;;;8.40;81.00;;;;;;4404468;29;20074;-68
2021/11/14 00:10:58;;;;;;;90.28;33.88;;;8.40;80.90;;;;;;4403073;29;20123;-68
2021/11/14 00:13:15;;;;;;;100.80;34.60;;;8.40;81.00;;;;;;4404342;29;20061;-68
2021/11/14 00:15:32;;;;;;;107.22;36.17;;;8.30;80.90;;;;;;4403076;29;20086;-69
2021/11/14 00:17:49;;;;;;;113.50;37.05;;;8.30;81.00;;;;;;4405814;29;20054;-69
2021/11/14 00:20:08;;;;;;;110.22;36.47;;;8.30;81.00;;;;;;4402934;29;20202;-68
2021/11/14 00:22:26;;;;;;;114.60;38.00;;;8.30;81.00;;;;;;4405639;29;20058;-69
2021/11/14 00:24:44;;;;;;;119.10;37.75;;;8.30;80.90;;;;;;4402858;29;20053;-68
2021/11/14 00:27:01;;;;;;;112.72;36.72;;;8.30;81.00;;;;;;4405562;29;20470;-68
2021/11/14 00:29:18;;;;;;;118.22;39.33;;;8.30;81.00;;;;;;4402830;29;20071;-68
2021/11/14 00:31:37;;;;;;;122.03;39.83;;;8.30;81.00;;;;;;4405007;29;20039;-68
2021/11/14 00:33:56;;;;;;;125.55;40.22;;;8.30;81.00;;;;;;4402642;29;20144;-68
2021/11/14 00:36:21;;;;;;;102.43;35.97;;;8.30;80.90;;;;;;4405242;29;20078;-68
2021/11/14 00:38:38;;;;;;;114.65;38.17;;;8.30;80.90;;;;;;4404793;29;20532;-68
2021/11/14 00:40:56;;;;;;;126.30;41.00;;;8.30;80.90;;;;;;4406904;29;20097;-68
2021/11/14 00:43:12;;;;;;;113.78;36.80;;;8.30;81.70;;;;;;4406971;29;20545;-68
2021/11/14 00:45:32;;;;;;;127.03;41.88;;;8.30;80.90;;;;;;4407517;29;20054;-68
2021/11/14 00:47:51;;;;;;;125.40;38.53;;;8.30;81.00;;;;;;4407289;29;20122;-68
2021/11/14 00:50:11;;;;;;;120.57;39.90;;;8.30;80.90;;;;;;4407295;29;20074;-68
2021/11/14 00:52:27;;;;;;;117.47;37.65;;;8.30;80.90;;;;;;4407215;29;20054;-68
2021/11/14 00:54:44;;;;;;;133.73;40.97;;;8.30;80.90;;;;;;4406997;29;20414;-68
2021/11/14 00:57:02;;;;;;;131.18;39.55;;;8.30;81.00;;;;;;4408381;29;20139;-68
2021/11/14 00:59:21;;;;;;;120.18;38.42;;;8.30;81.00;;;;;;4405777;29;20445;-68
2021/11/14 01:01:37;;;;;;;128.50;38.65;;;8.30;81.00;;;;;;4406922;29;20540;-68
2021/11/14 01:03:57;;;;;;;125.35;39.15;;;8.30;81.00;;;;;;4404477;29;20062;-68
2021/11/14 01:06:17;;;;;;;127.18;38.35;;;8.30;81.00;;;;;;4405920;29;20055;-68
2021/11/14 01:08:33;;;;;;;127.45;39.70;;;8.30;81.00;;;;;;4406056;29;20744;-68
2021/11/14 01:10:52;;;;;;;128.63;40.55;;;8.30;80.90;;;;;;4406220;29;20089;-67
2021/11/14 01:13:10;;;;;;;133.40;39.80;;;8.30;80.90;;;;;;4405044;29;20051;-68
2021/11/14 01:15:28;;;;;;;163.25;58.88;;;8.30;80.90;;;;;;4404454;29;20055;-69
2021/11/14 01:17:45;;;;;;;236.02;90.82;;;8.30;81.00;;;;;;4406378;29;20050;-68
2021/11/14 01:20:05;;;;;;;124.53;41.50;;;8.30;81.00;;;;;;4406273;29;20520;-68
2021/11/14 01:22:21;;;;;;;133.43;40.67;;;8.30;81.00;;;;;;4405218;29;20065;-68
2021/11/14 01:24:40;;;;;;;118.68;38.97;;;8.30;81.00;;;;;;4405678;29;20550;-68
2021/11/14 01:26:57;;;;;;;131.05;41.22;;;8.30;80.90;;;;;;4404185;29;20050;-68
2021/11/14 01:29:15;;;;;;;127.13;38.80;;;8.30;80.90;;;;;;4401305;29;20082;-68
2021/11/14 01:31:34;;;;;;;122.65;38.90;;;8.30;81.00;;;;;;4403832;29;20058;-68
2021/11/14 01:33:51;;;;;;;120.93;39.58;;;8.30;80.90;;;;;;4403069;29;20153;-68
2021/11/14 01:36:07;;;;;;;122.63;37.35;;;8.30;80.90;;;;;;4404022;29;20055;-69
2021/11/14 01:38:27;;;;;;;128.07;41.92;;;8.30;80.90;;;;;;4404007;29;20082;-68
2021/11/14 01:40:45;;;;;;;122.38;37.38;;;8.30;80.80;;;;;;4405624;29;20078;-68
2021/11/14 01:43:03;;;;;;;131.13;42.05;;;8.30;80.90;;;;;;4404801;29;20061;-68
2021/11/14 01:45:22;;;;;;;128.20;42.88;;;8.30;80.90;;;;;;4404909;29;20074;-68
2021/11/14 01:47:40;;;;;;;130.13;40.28;;;8.30;80.80;;;;;;4404612;29;20509;-68
2021/11/14 01:49:56;;;;;;;130.52;41.30;;;8.30;80.80;;;;;;4404879;29;20054;-68
2021/11/14 01:52:20;;;;;;;135.65;40.92;;;8.30;80.90;;;;;;4405010;29;20097;-68
2021/11/14 01:54:39;;;;;;;124.60;39.28;;;8.30;80.90;;;;;;4404525;29;20074;-68
2021/11/14 01:56:57;;;;;;;122.57;43.03;;;8.30;81.00;;;;;;4404623;29;20046;-68
2021/11/14 01:59:13;;;;;;;137.20;41.78;;;8.30;80.90;;;;;;4404317;29;20047;-68
2021/11/14 02:01:33;;;;;;;135.98;42.33;;;8.30;80.80;;;;;;4419057;29;20054;-68
2021/11/14 02:03:52;;;;;;;131.68;39.38;;;8.30;80.80;;;;;;4404048;29;20065;-68
2021/11/14 02:06:10;;;;;;;157.10;46.22;;;8.30;80.80;;;;;;4404537;29;20074;-69
2021/11/14 02:08:26;;;;;;;151.38;45.22;;;8.30;81.40;;;;;;4402599;29;20057;-68
2021/11/14 02:10:44;;;;;;;142.98;43.67;;;8.30;80.50;;;;;;4404580;29;20084;-68
2021/11/14 02:13:04;;;;;;;154.02;48.15;;;8.20;80.60;;;;;;4403110;29;20119;-68
2021/11/14 02:15:21;;;;;;;177.82;47.78;;;8.30;80.90;;;;;;4402532;29;20050;-69
2021/11/14 02:17:39;;;;;;;184.25;48.42;;;8.30;80.80;;;;;;4403401;29;20050;-68
2021/11/14 02:19:57;;;;;;;166.15;48.53;;;8.20;80.50;;;;;;4403896;29;20074;-68
2021/11/14 02:22:13;;;;;;;167.23;46.20;;;8.20;80.80;;;;;;4402532;29;20058;-68
2021/11/14 02:24:30;;;;;;;155.52;44.83;;;8.20;80.80;;;;;;4404205;29;20050;-68
2021/11/14 02:26:47;;;;;;;142.70;42.13;;;8.20;81.50;;;;;;4402487;29;20090;-68
2021/11/14 02:29:04;;;;;;;150.40;43.03;;;8.20;80.80;;;;;;4404821;29;20047;-68
2021/11/14 02:31:21;;;;;;;159.27;44.88;;;8.10;80.80;;;;;;4405190;29;20125;-68
2021/11/14 02:33:38;;;;;;;145.80;41.25;;;8.10;80.80;;;;;;4403998;29;20446;-68
2021/11/14 02:36:00;;;;;;;146.57;43.72;;;8.10;80.90;;;;;;4405162;29;20047;-68
2021/11/14 02:38:21;;;;;;;147.10;41.83;;;8.10;81.00;;;;;;4405007;29;20101;-68
2021/11/14 02:40:37;;;;;;;140.98;40.83;;;8.20;81.00;;;;;;4404013;29;20055;-68
2021/11/14 02:42:54;;;;;;;139.50;41.70;;;8.20;81.80;;;;;;4404703;29;20399;-68
2021/11/14 02:45:11;;;;;;;121.72;40.05;;;8.10;81.00;;;;;;4404041;29;20047;-68
2021/11/14 02:47:30;;;;;;;126.50;39.38;;;8.20;81.90;;;;;;4402617;29;20051;-68
2021/11/14 02:49:47;;;;;;;127.97;39.70;;;8.20;81.10;;;;;;4405293;29;20057;-68
2021/11/14 02:52:05;;;;;;;121.40;39.33;;;8.20;81.00;;;;;;4403929;29;20406;-68
2021/11/14 02:54:22;;;;;;;119.60;39.78;;;8.20;80.70;;;;;;4402238;29;20051;-68
2021/11/14 02:56:38;;;;;;;123.50;38.38;;;8.20;80.90;;;;;;4404776;29;20051;-68
2021/11/14 02:58:55;;;;;;;121.25;39.13;;;8.20;81.00;;;;;;4404855;29;20051;-68
2021/11/14 03:01:15;;;;;;;115.03;38.72;;;8.20;81.10;;;;;;4403502;29;20081;-68
2021/11/14 03:03:32;;;;;;;136.02;40.72;;;8.20;81.10;;;;;;4400786;29;20115;-68
2021/11/14 03:05:49;;;;;;;128.50;41.50;;;8.20;80.90;;;;;;4401420;29;20142;-68
2021/11/14 03:08:07;;;;;;;129.85;39.00;;;8.20;80.80;;;;;;4401798;29;20494;-68
2021/11/14 03:10:27;;;;;;;122.68;37.92;;;8.20;81.00;;;;;;4403115;29;20059;-68
2021/11/14 03:12:54;;;;;;;108.88;37.65;;;8.20;81.00;;;;;;4401688;29;20104;-68
2021/11/14 03:15:13;;;;;;;106.45;38.78;;;8.20;80.90;;;;;;4403307;29;20088;-68
2021/11/14 03:17:29;;;;;;;117.03;39.33;;;8.20;80.80;;;;;;4403271;29;20059;-68
2021/11/14 03:19:48;;;;;;;123.65;41.40;;;8.20;80.90;;;;;;4404815;29;20051;-68
2021/11/14 03:22:05;;;;;;;108.38;35.97;;;8.20;81.60;;;;;;4404329;29;20066;-68
2021/11/14 03:24:23;;;;;;;114.63;36.85;;;8.20;80.90;;;;;;4404652;29;20053;-68
2021/11/14 03:26:41;;;;;;;116.90;37.17;;;8.20;80.90;;;;;;4404409;29;20078;-68
2021/11/14 03:28:58;;;;;;;107.72;36.17;;;8.20;81.60;;;;;;4403282;29;20090;-68
2021/11/14 03:31:15;;;;;;;112.88;39.25;;;8.20;80.80;;;;;;4402987;29;20082;-68
2021/11/14 03:33:32;;;;;;;107.13;36.17;;;8.20;80.80;;;;;;4402909;29;20081;-68
2021/11/14 03:35:51;;;;;;;114.90;38.33;;;8.20;80.60;;;;;;4402993;29;20531;-68
2021/11/14 03:38:12;;;;;;;105.30;36.05;;;8.20;80.80;;;;;;4403407;29;20404;-68
2021/11/14 03:40:29;;;;;;;105.05;36.05;;;8.30;80.70;;;;;;4403060;29;20424;-68
2021/11/14 03:42:47;;;;;;;102.07;35.58;;;8.30;80.60;;;;;;4402920;29;20074;-68
2021/11/14 03:45:04;;;;;;;103.82;35.55;;;8.20;80.80;;;;;;4404150;29;20050;-68
2021/11/14 03:47:20;;;;;;;108.97;33.88;;;8.20;80.80;;;;;;4404115;29;20058;-68
2021/11/14 03:49:38;;;;;;;100.28;34.20;;;8.30;80.90;;;;;;4402856;29;20518;-68
2021/11/14 03:51:55;;;;;;;104.00;33.83;;;8.30;80.90;;;;;;4403824;29;20066;-68
2021/11/14 03:54:11;;;;;;;102.00;36.35;;;8.30;80.70;;;;;;4404164;29;20080;-68
2021/11/14 03:56:31;;;;;;;97.45;34.72;;;8.30;80.80;;;;;;4402495;29;20070;-68
2021/11/14 03:58:48;;;;;;;101.25;35.47;;;8.30;80.90;;;;;;4403098;29;20059;-68
2021/11/14 04:01:07;;;;;;;95.43;33.85;;;8.30;80.90;;;;;;4403693;29;20571;-68
2021/11/14 04:03:28;;;;;;;102.10;35.78;;;8.30;81.00;;;;;;4402728;29;20082;-68
2021/11/14 04:05:45;;;;;;;98.57;35.10;;;8.30;81.00;;;;;;4403867;29;20051;-68
2021/11/14 04:08:06;;;;;;;103.00;35.30;;;8.30;80.90;;;;;;4404098;29;20525;-68
2021/11/14 04:10:23;;;;;;;93.55;33.85;;;8.30;81.00;;;;;;4402553;29;20493;-68
2021/11/14 04:12:42;;;;;;;105.95;35.05;;;8.30;81.00;;;;;;4404036;29;20542;-68
2021/11/14 04:14:58;;;;;;;103.43;34.45;;;8.30;80.90;;;;;;4406166;29;20058;-68
2021/11/14 04:17:17;;;;;;;101.22;35.60;;;8.40;81.00;;;;;;4406037;29;20527;-67
2021/11/14 04:19:34;;;;;;;103.57;34.17;;;8.30;81.00;;;;;;4406029;29;20054;-67
2021/11/14 04:21:50;;;;;;;102.47;36.72;;;8.40;81.00;;;;;;4405946;29;20380;-67
2021/11/14 04:24:07;;;;;;;98.15;35.63;;;8.40;81.10;;;;;;4407220;29;20155;-68
2021/11/14 04:26:24;;;;;;;96.60;34.92;;;8.40;81.10;;;;;;4405839;29;20138;-69
2021/11/14 04:28:42;;;;;;;95.50;34.97;;;8.40;81.10;;;;;;4407084;29;20054;-67
2021/11/14 04:30:58;;;;;;;96.03;35.70;;;8.50;81.20;;;;;;4406987;29;20081;-69
2021/11/14 04:33:16;;;;;;;98.13;33.60;;;8.50;81.20;;;;;;4406060;29;20055;-69
2021/11/14 04:35:33;;;;;;;91.95;33.15;;;8.50;81.20;;;;;;4406414;29;20310;-69
2021/11/14 04:37:51;;;;;;;92.90;32.50;;;8.50;81.10;;;;;;4406574;29;20506;-69
2021/11/14 04:40:10;;;;;;;82.57;33.30;;;8.50;81.20;;;;;;4404249;29;20443;-69
2021/11/14 04:42:26;;;;;;;94.20;35.63;;;8.50;81.30;;;;;;4406962;29;20490;-69
2021/11/14 04:44:44;;;;;;;96.60;33.53;;;8.50;81.30;;;;;;4405945;29;20078;-69
2021/11/14 04:47:04;;;;;;;91.05;34.03;;;8.50;81.20;;;;;;4404995;29;20058;-69
2021/11/14 04:49:21;;;;;;;93.88;33.63;;;8.50;81.20;;;;;;4405438;29;20067;-69
2021/11/14 04:51:39;;;;;;;90.20;34.75;;;8.50;81.20;;;;;;4404402;29;20078;-69
2021/11/14 04:53:59;;;;;;;88.78;34.67;;;8.50;81.10;;;;;;4404669;29;20051;-69
2021/11/14 04:56:16;;;;;;;90.07;35.72;;;8.50;81.10;;;;;;4403411;29;20058;-69
2021/11/14 04:58:32;;;;;;;93.93;33.60;;;8.50;81.20;;;;;;4404006;29;20498;-69
2021/11/14 05:00:52;;;;;;;95.13;33.33;;;8.50;81.20;;;;;;4404407;29;20046;-69
2021/11/14 05:03:10;;;;;;;89.25;33.42;;;8.60;81.40;;;;;;4405321;29;20415;-69
2021/11/14 05:05:26;;;;;;;88.15;33.50;;;8.50;81.20;;;;;;4405466;29;20465;-69
2021/11/14 05:07:42;;;;;;;94.05;35.35;;;8.50;81.20;;;;;;4406453;29;20058;-68
2021/11/14 05:09:59;;;;;;;90.47;32.85;;;8.60;81.30;;;;;;4405077;29;20088;-69
2021/11/14 05:12:16;;;;;;;96.05;35.00;;;8.50;81.30;;;;;;4406736;29;20371;-69
2021/11/14 05:14:32;;;;;;;86.13;33.78;;;8.60;81.40;;;;;;4404804;29;20054;-69
2021/11/14 05:16:50;;;;;;;86.72;33.05;;;8.50;81.30;;;;;;4405420;29;20078;-69
2021/11/14 05:19:06;;;;;;;84.63;32.75;;;8.60;81.30;;;;;;4406158;29;20085;-69
2021/11/14 05:21:23;;;;;;;89.20;34.08;;;8.60;81.20;;;;;;4405177;29;20121;-69
2021/11/14 05:23:39;;;;;;;87.25;33.97;;;8.60;81.30;;;;;;4406121;29;20482;-69
2021/11/14 05:25:56;;;;;;;77.05;31.88;;;8.60;81.30;;;;;;4405229;29;20077;-69
2021/11/14 05:28:12;;;;;;;81.45;31.85;;;8.60;80.90;;;;;;4404870;29;20056;-68
2021/11/14 05:30:29;;;;;;;79.40;30.65;;;8.50;81.70;;;;;;4404879;29;20071;-69
2021/11/14 05:32:47;;;;;;;85.07;32.22;;;8.50;81.00;;;;;;4406233;29;20070;-69
2021/11/14 05:35:07;;;;;;;78.03;32.30;;;8.50;81.10;;;;;;4404802;29;20084;-69
2021/11/14 05:37:24;;;;;;;78.47;30.90;;;8.50;81.10;;;;;;4404863;29;20082;-69
2021/11/14 05:39:40;;;;;;;84.40;32.45;;;8.50;81.10;;;;;;4406003;29;20074;-68
2021/11/14 05:41:57;;;;;;;77.10;30.67;;;8.50;81.00;;;;;;4404634;29;20467;-69
2021/11/14 05:44:14;;;;;;;80.10;31.70;;;8.60;81.20;;;;;;4404629;29;20055;-69
2021/11/14 05:46:33;;;;;;;83.95;32.80;;;8.60;81.20;;;;;;4404747;29;20107;-68
2021/11/14 05:48:51;;;;;;;82.30;32.72;;;8.50;81.10;;;;;;4404449;29;20414;-68
2021/11/14 05:51:08;;;;;;;81.47;32.13;;;8.50;81.20;;;;;;4406111;29;20054;-68
2021/11/14 05:53:25;;;;;;;80.32;30.45;;;8.50;81.20;;;;;;4405381;29;20086;-69
2021/11/14 05:55:41;;;;;;;79.90;31.48;;;8.50;81.20;;;;;;4404795;29;20129;-69
2021/11/14 05:58:01;;;;;;;82.40;31.85;;;8.60;81.30;;;;;;4404517;29;20139;-69
2021/11/14 06:00:22;;;;;;;83.78;30.17;;;8.60;81.20;;;;;;4404598;29;20085;-69
2021/11/14 06:02:42;;;;;;;84.05;32.65;;;8.60;81.20;;;;;;4405623;29;20051;-69
2021/11/14 06:05:11;;;;;;;82.60;30.00;;;8.60;81.20;;;;;;4404532;29;20074;-69
2021/11/14 06:07:29;;;;;;;86.40;32.50;;;8.60;81.20;;;;;;4404321;29;20071;-69
2021/11/14 06:09:46;;;;;;;80.85;31.30;;;8.60;81.20;;;;;;4404303;29;20051;-69
2021/11/14 06:12:02;;;;;;;85.70;33.28;;;8.60;81.20;;;;;;4405480;29;20122;-67
2021/11/14 06:14:21;;;;;;;85.65;33.05;;;8.70;81.30;;;;;;4404477;29;20458;-68
2021/11/14 06:16:38;;;;;;;85.30;32.47;;;8.70;81.20;;;;;;4404148;29;20495;-68
2021/11/14 06:18:56;;;;;;;85.00;33.10;;;8.70;81.10;;;;;;4405352;29;20057;-69
2021/11/14 06:21:15;;;;;;;89.03;32.92;;;8.70;81.00;;;;;;4405364;29;20605;-69
2021/11/14 06:23:31;;;;;;;90.20;33.22;;;8.70;81.00;;;;;;4403647;29;20138;-68
2021/11/14 06:25:47;;;;;;;84.40;32.92;;;8.70;80.80;;;;;;4404244;29;20470;-69
2021/11/14 06:28:04;;;;;;;84.70;33.47;;;8.70;80.80;;;;;;4405004;29;20083;-70
2021/11/14 06:30:21;;;;;;;91.55;34.00;;;8.70;80.80;;;;;;4403679;29;20057;-69
2021/11/14 06:32:38;;;;;;;83.43;31.92;;;8.70;80.80;;;;;;4403169;29;20545;-69
2021/11/14 06:34:54;;;;;;;85.68;31.45;;;8.70;80.70;;;;;;4404574;29;20086;-69
2021/11/14 06:37:12;;;;;;;85.03;33.45;;;8.70;80.70;;;;;;4403154;29;20086;-68
2021/11/14 06:39:28;;;;;;;89.13;31.52;;;8.70;80.70;;;;;;4401798;29;20516;-69
2021/11/14 06:41:45;;;;;;;86.60;32.33;;;8.70;80.60;;;;;;4403176;29;20077;-68
2021/11/14 06:44:01;;;;;;;77.60;30.48;;;8.70;80.50;;;;;;4402953;29;20071;-69
2021/11/14 06:46:18;;;;;;;81.38;30.92;;;8.80;80.80;;;;;;4402920;29;20047;-68
2021/11/14 06:48:36;;;;;;;78.38;31.88;;;8.80;80.80;;;;;;4401757;29;20078;-68
2021/11/14 06:50:53;;;;;;;75.57;30.95;;;8.80;80.70;;;;;;4401857;29;20048;-68
2021/11/14 06:53:14;;;;;;;77.03;31.05;;;8.80;80.60;;;;;;4402680;29;20051;-68
2021/11/14 06:55:30;;;;;;;75.97;30.77;;;8.90;80.60;;;;;;4403539;29;20075;-68
2021/11/14 06:57:48;;;;;;;70.50;27.75;;;8.90;80.50;;;;;;4403535;29;20061;-68
2021/11/14 07:00:07;;;;;;;68.72;29.50;;;8.90;80.20;;;;;;4404931;29;20100;-68
2021/11/14 07:02:24;;;;;;;67.85;28.15;;;8.90;80.30;;;;;;4403195;29;20063;-68
2021/11/14 07:04:40;;;;;;;67.68;29.83;;;8.90;81.10;;;;;;4404752;29;20054;-68
2021/11/14 07:06:58;;;;;;;69.80;28.63;;;9.00;80.40;;;;;;4404416;29;20490;-68
2021/11/14 07:09:17;;;;;;;67.45;28.58;;;9.00;80.30;;;;;;4404884;29;20465;-68
2021/11/14 07:11:33;;;;;;;67.88;28.73;;;9.10;80.30;;;;;;4404379;29;20058;-68
2021/11/14 07:13:49;;;;;;;65.70;29.73;;;9.10;80.20;;;;;;4404696;29;20061;-68
2021/11/14 07:16:08;;;;;;;66.00;28.30;;;9.10;80.10;;;;;;4403286;29;20143;-68
2021/11/14 07:18:24;;;;;;;62.60;28.02;;;9.20;80.20;;;;;;4403256;29;20046;-68
2021/11/14 07:20:43;;;;;;;62.17;27.52;;;9.20;80.10;;;;;;4403337;29;20055;-68
2021/11/14 07:23:00;;;;;;;57.92;26.40;;;9.30;80.00;;;;;;4403196;29;20059;-68
2021/11/14 07:25:20;;;;;;;62.38;29.67;;;9.30;79.80;;;;;;4404603;29;20051;-68
2021/11/14 07:27:36;;;;;;;63.38;28.33;;;9.30;79.70;;;;;;4404831;29;20489;-68
2021/11/14 07:29:53;;;;;;;62.03;26.35;;;9.30;80.40;;;;;;4402995;29;20078;-69
2021/11/14 07:32:10;;;;;;;62.20;28.35;;;9.40;79.60;;;;;;4404404;29;20042;-68
2021/11/14 07:34:26;;;;;;;62.10;27.70;;;9.40;79.50;;;;;;4402967;29;20059;-69
2021/11/14 07:36:46;;;;;;;62.75;26.92;;;9.40;79.40;;;;;;4402980;29;20082;-68
2021/11/14 07:39:04;;;;;;;65.20;28.98;;;9.40;79.40;;;;;;4404369;29;20466;-68
2021/11/14 07:41:21;;;;;;;57.30;26.65;;;9.40;79.30;;;;;;4404367;29;20051;-69
2021/11/14 07:43:38;;;;;;;61.58;29.30;;;9.40;79.20;;;;;;4404416;29;20075;-68
2021/11/14 07:45:55;;;;;;;61.28;27.27;;;9.40;79.20;;;;;;4402693;29;20107;-68
2021/11/14 07:48:13;;;;;;;58.22;26.55;;;9.50;79.20;;;;;;4402771;29;20484;-69
2021/11/14 07:50:31;;;;;;;63.45;28.63;;;9.50;79.20;;;;;;4402310;29;20143;-68
2021/11/14 07:52:48;;;;;;;59.00;27.10;;;9.50;79.10;;;;;;4404020;29;20054;-69
2021/11/14 07:55:06;;;;;;;64.40;29.02;;;9.50;79.00;;;;;;4403893;29;20058;-68
2021/11/14 07:57:24;;;;;;;67.18;29.30;;;9.50;79.00;;;;;;4402858;29;20193;-68
2021/11/14 07:59:41;;;;;;;65.47;30.17;;;9.50;79.00;;;;;;4402707;29;20047;-69
2021/11/14 08:01:57;;;;;;;65.18;29.45;;;9.60;79.00;;;;;;4403959;29;20063;-68
2021/11/14 08:04:17;;;;;;;64.72;28.15;;;9.60;78.90;;;;;;4402624;29;20059;-68
2021/11/14 08:06:35;;;;;;;63.83;28.02;;;9.60;78.70;;;;;;4402742;29;20125;-68
2021/11/14 08:08:51;;;;;;;61.53;28.30;;;9.70;78.80;;;;;;4403886;29;20055;-69
2021/11/14 08:11:08;;;;;;;64.32;29.50;;;9.70;78.60;;;;;;4404047;29;20103;-69
2021/11/14 08:13:26;;;;;;;60.40;28.27;;;9.80;78.40;;;;;;4402488;29;20078;-69
2021/11/14 08:15:43;;;;;;;62.40;28.35;;;9.90;78.40;;;;;;4403750;29;20057;-68
2021/11/14 08:17:59;;;;;;;57.22;26.50;;;9.90;78.20;;;;;;4403862;29;20078;-68
2021/11/14 08:20:16;;;;;;;58.97;28.08;;;10.00;78.00;;;;;;4403711;29;20057;-68
2021/11/14 08:22:32;;;;;;;63.28;28.48;;;10.00;77.60;;;;;;4402684;29;20065;-68
2021/11/14 08:24:51;;;;;;;60.25;28.73;;;10.10;77.60;;;;;;4403648;29;20074;-68
2021/11/14 08:27:07;;;;;;;61.40;27.05;;;10.10;77.60;;;;;;4402749;29;20414;-67
2021/11/14 08:29:25;;;;;;;63.25;29.92;;;10.10;77.60;;;;;;4402384;29;20047;-68
2021/11/14 08:31:42;;;;;;;60.45;27.75;;;10.10;77.50;;;;;;4403829;29;20166;-68
2021/11/14 08:34:00;;;;;;;62.08;29.23;;;10.20;77.50;;;;;;4403655;29;20122;-68
2021/11/14 08:36:16;;;;;;;58.10;28.27;;;10.20;77.30;;;;;;4402458;29;20081;-68
2021/11/14 08:38:33;;;;;;;64.43;28.58;;;10.20;77.20;;;;;;4403842;29;20076;-67
2021/11/14 08:40:49;;;;;;;58.25;28.65;;;10.30;77.20;;;;;;4401014;29;20054;-67
2021/11/14 08:43:08;;;;;;;58.17;27.02;;;10.30;76.90;;;;;;4402231;29;20051;-68
2021/11/14 08:45:28;;;;;;;57.17;26.17;;;10.40;76.70;;;;;;4402952;29;20043;-67
2021/11/14 08:47:44;;;;;;;58.55;27.50;;;10.40;76.60;;;;;;4403598;29;20055;-67
2021/11/14 08:50:01;;;;;;;67.00;30.92;;;10.50;76.60;;;;;;4403805;29;20074;-67
2021/11/14 08:52:19;;;;;;;61.13;26.48;;;10.50;76.50;;;;;;4402246;29;20097;-67
2021/11/14 08:54:36;;;;;;;59.90;28.17;;;10.60;76.40;;;;;;4403708;29;20414;-68
2021/11/14 08:56:53;;;;;;;61.67;27.73;;;10.60;76.20;;;;;;4402398;29;20047;-68
2021/11/14 08:59:10;;;;;;;59.20;27.35;;;10.60;76.00;;;;;;4402568;29;20079;-68
2021/11/14 09:01:28;;;;;;;58.80;27.23;;;10.70;75.70;;;;;;4406379;29;20054;-68
2021/11/14 09:03:45;;;;;;;59.58;28.10;;;10.70;75.60;;;;;;4406274;29;20088;-68
2021/11/14 09:06:01;;;;;;;61.72;30.13;;;10.80;75.60;;;;;;4405533;29;20455;-68
2021/11/14 09:08:18;;;;;;;62.75;29.13;;;10.80;75.60;;;;;;4406840;29;20482;-68
2021/11/14 09:10:37;;;;;;;59.22;29.15;;;10.90;75.50;;;;;;4405424;29;20051;-67
2021/11/14 09:12:53;;;;;;;62.10;28.33;;;10.90;75.40;;;;;;4407307;29;20116;-68
2021/11/14 09:15:12;;;;;;;63.60;29.63;;;11.00;75.30;;;;;;4406303;29;20051;-68
2021/11/14 09:17:30;;;;;;;60.00;27.48;;;11.00;74.90;;;;;;4406410;29;20513;-68
2021/11/14 09:19:47;;;;;;;59.15;28.88;;;11.00;74.80;;;;;;4406455;29;20458;-68
2021/11/14 09:22:03;;;;;;;56.13;29.02;;;11.00;74.60;;;;;;4406507;29;20047;-68
2021/11/14 09:24:20;;;;;;;61.20;29.50;;;11.00;74.50;;;;;;4405060;29;20283;-67
2021/11/14 09:26:37;;;;;;;58.63;29.90;;;11.00;74.80;;;;;;4404869;29;20077;-68
2021/11/14 09:28:56;;;;;;;59.25;28.83;;;11.00;74.80;;;;;;4406459;29;20403;-67
2021/11/14 09:31:13;;;;;;;57.70;28.08;;;11.10;74.60;;;;;;4406154;29;20396;-68
2021/11/14 09:33:34;;;;;;;58.97;28.85;;;11.10;74.50;;;;;;4406513;29;20479;-68
2021/11/14 09:35:50;;;;;;;62.75;28.98;;;11.10;74.50;;;;;;4404899;29;20065;-68
2021/11/14 09:38:08;;;;;;;62.00;29.20;;;11.20;74.50;;;;;;4404887;29;20078;-67
2021/11/14 09:40:24;;;;;;;65.65;31.10;;;11.20;74.40;;;;;;4406109;29;20452;-68
2021/11/14 09:42:43;;;;;;;58.97;29.55;;;11.20;74.30;;;;;;4404620;29;20051;-68
2021/11/14 09:45:04;;;;;;;62.72;31.17;;;11.20;74.10;;;;;;4404924;29;20096;-67
2021/11/14 09:47:21;;;;;;;64.00;31.73;;;11.10;74.20;;;;;;4404616;29;20070;-68
2021/11/14 09:49:42;;;;;;;62.25;29.75;;;11.20;74.40;;;;;;4405865;29;20066;-68
2021/11/14 09:52:01;;;;;;;62.42;28.77;;;11.20;74.40;;;;;;4404590;29;20057;-68
2021/11/14 09:54:18;;;;;;;60.35;29.75;;;11.20;74.20;;;;;;4405606;29;20051;-67
2021/11/14 09:56:34;;;;;;;58.03;29.15;;;11.20;74.40;;;;;;4405661;29;20050;-67
2021/11/14 09:58:51;;;;;;;60.35;30.20;;;11.20;74.20;;;;;;4405636;29;20449;-67
2021/11/14 10:01:09;;;;;;;60.92;29.10;;;11.20;74.40;;;;;;4404336;29;20537;-68
2021/11/14 10:03:28;;;;;;;62.65;29.83;;;11.20;74.50;;;;;;4406099;29;20112;-67
2021/11/14 10:05:49;;;;;;;58.75;27.75;;;11.20;74.40;;;;;;4405643;29;20082;-67
2021/11/14 10:08:09;;;;;;;61.75;29.70;;;11.20;74.20;;;;;;4405706;29;20050;-68
2021/11/14 10:10:31;;;;;;;62.33;29.63;;;11.20;74.20;;;;;;4404303;29;20142;-68
2021/11/14 10:13:10;;;;;;;58.33;28.77;;;11.30;74.10;;;;;;4403772;29;20451;-68
2021/11/14 10:15:28;;;;;;;63.28;30.17;;;11.40;74.00;;;;;;4405579;29;20514;-68
2021/11/14 10:17:48;;;;;;;56.25;28.20;;;11.50;73.90;;;;;;4405361;29;20050;-68
2021/11/14 10:20:14;;;;;;;61.80;29.58;;;11.50;73.60;;;;;;4404327;29;20084;-69
2021/11/14 10:22:32;;;;;;;64.80;30.50;;;11.50;73.50;;;;;;4404165;29;20119;-67
2021/11/14 10:24:49;;;;;;;63.88;29.00;;;11.50;73.30;;;;;;4405281;29;20154;-68
2021/11/14 10:27:15;;;;;;;62.40;29.25;;;11.50;73.40;;;;;;4403915;29;20058;-69
2021/11/14 10:29:31;;;;;;;65.43;32.42;;;11.60;73.50;;;;;;4405531;29;20519;-68
2021/11/14 10:31:48;;;;;;;67.38;31.35;;;11.70;73.50;;;;;;4403863;29;20410;-68
2021/11/14 10:34:05;;;;;;;70.93;32.72;;;11.70;73.30;;;;;;4405388;29;20139;-68
2021/11/14 10:36:26;;;;;;;75.70;35.70;;;11.70;73.20;;;;;;4405109;29;20084;-67
2021/11/14 10:38:45;;;;;;;72.18;34.13;;;11.80;73.10;;;;;;4403675;29;20077;-68
2021/11/14 10:41:07;;;;;;;55.35;29.27;;;11.90;73.00;;;;;;4404084;29;20491;-68
2021/11/14 10:43:25;;;;;;;62.72;29.67;;;11.90;72.70;;;;;;4403518;29;20081;-68
2021/11/14 10:45:42;;;;;;;61.08;31.55;;;11.90;72.50;;;;;;4404983;29;20135;-68
2021/11/14 10:48:00;;;;;;;58.15;28.73;;;11.90;72.70;;;;;;4405151;29;20050;-68
2021/11/14 10:50:19;;;;;;;59.60;27.67;;;11.90;73.30;;;;;;4403668;29;20055;-68
2021/11/14 10:52:50;;;;;;;56.30;28.40;;;11.90;72.50;;;;;;4404883;29;20055;-68
2021/11/14 10:55:10;;;;;;;57.88;29.98;;;12.00;72.40;;;;;;4404843;29;20126;-68
2021/11/14 10:57:29;;;;;;;63.33;30.15;;;12.00;72.30;;;;;;4403140;29;20108;-68
2021/11/14 10:59:49;;;;;;;65.22;30.10;;;12.00;72.40;;;;;;4403249;29;20073;-68
2021/11/14 11:02:07;;;;;;;57.60;29.75;;;12.00;72.30;;;;;;4404215;29;20130;-68
2021/11/14 11:04:24;;;;;;;59.10;29.48;;;12.00;72.30;;;;;;4403528;29;20071;-68
2021/11/14 11:06:40;;;;;;;59.72;29.98;;;12.10;72.30;;;;;;4403502;29;20051;-68
2021/11/14 11:08:58;;;;;;;57.83;28.73;;;12.10;72.30;;;;;;4404557;29;20050;-68
2021/11/14 11:11:23;;;;;;;57.50;27.60;;;12.10;72.90;;;;;;4404910;29;20135;-68
2021/11/14 11:13:42;;;;;;;57.15;28.00;;;12.20;73.00;;;;;;4403161;29;20595;-69
2021/11/14 11:16:04;;;;;;;61.88;29.13;;;12.20;72.80;;;;;;4404486;29;20051;-69
2021/11/14 11:18:22;;;;;;;52.55;27.40;;;12.30;71.90;;;;;;4404398;29;20051;-69
2021/11/14 11:20:39;;;;;;;55.60;29.77;;;12.30;71.90;;;;;;4403027;29;20055;-69
2021/11/14 11:23:03;;;;;;;66.22;34.28;;;12.40;71.80;;;;;;4403069;29;20067;-68
2021/11/14 11:25:32;;;;;;;55.85;29.50;;;12.50;71.60;;;;;;4402767;29;20070;-69
2021/11/14 11:27:56;;;;;;;240.35;123.55;;;12.50;71.50;;;;;;4403039;29;20057;-68
2021/11/14 11:30:25;;;;;;;58.22;31.30;;;12.50;71.40;;;;;;4404617;29;20134;-69
2021/11/14 11:32:46;;;;;;;55.63;28.92;;;12.40;71.40;;;;;;4403125;29;20104;-69
2021/11/14 11:35:02;;;;;;;57.30;29.50;;;12.30;71.30;;;;;;4402761;29;20130;-69
2021/11/14 11:37:18;;;;;;;55.10;29.15;;;12.30;71.60;;;;;;4403120;29;20050;-68
2021/11/14 11:39:35;;;;;;;61.83;31.73;;;12.20;71.60;;;;;;4404256;29;20457;-69
2021/11/14 11:41:56;;;;;;;57.00;30.67;;;12.20;71.70;;;;;;4403161;29;20051;-68
2021/11/14 11:44:29;;;;;;;56.95;30.75;;;12.20;71.70;;;;;;4404095;29;20110;-67